Time;durP1;ratioP1;P1;durP2;ratioP2;P2;SDS_P1;SDS_P2;PMS_P1;PMS_P2;Temp;Humidity;BMP_temperature;BMP_pressure;BME280_temperature;BME280_humidity;BME280_pressure;Samples;Min_cycle;Max_cycle;Signal;HPM_P1;HPM_P2
2022/11/15 00:01:46;;;;;;;19.92;9.18;;;;;;;;;;4948175;28;20023;-87
2022/11/15 00:04:12;;;;;;;15.73;8.73;;;;;;;;;;4950097;28;20134;-87
2022/11/15 00:06:37;;;;;;;16.45;8.70;;;;;;;;;;4948239;28;20078;-88
2022/11/15 00:09:03;;;;;;;17.00;8.85;;;;;;;;;;4932734;28;20125;-87
2022/11/15 00:11:29;;;;;;;17.77;8.65;;;;;;;;;;4935086;28;20085;-88
2022/11/15 00:13:57;;;;;;;19.02;9.75;;;;;;;;;;4948607;28;20034;-86
2022/11/15 00:16:24;;;;;;;19.38;9.38;;;;;;;;;;4935604;28;20515;-87
2022/11/15 00:18:50;;;;;;;19.17;9.18;;;;;;;;;;4927204;29;20031;-87
2022/11/15 00:21:16;;;;;;;15.70;9.20;;;;;;;;;;4941860;28;20031;-88
2022/11/15 00:23:42;;;;;;;22.05;9.70;;;;;;;;;;4931737;28;20404;-86
2022/11/15 00:26:11;;;;;;;13.93;7.75;;;;;;;;;;4927685;29;20042;-89
2022/11/15 00:28:37;;;;;;;19.05;9.52;;;;;;;;;;4930212;28;20620;-88
2022/11/15 00:31:08;;;;;;;19.98;9.38;;;;;;;;;;4927732;29;20115;-86
2022/11/15 00:33:34;;;;;;;17.67;8.95;;;;;;;;;;4942187;28;20031;-86
2022/11/15 00:36:06;;;;;;;18.48;9.60;;;;;;;;;;4938289;28;20031;-88
2022/11/15 00:38:33;;;;;;;16.77;9.07;;;;;;;;;;4931188;28;20065;-86
2022/11/15 00:40:59;;;;;;;19.80;9.60;;;;;;;;;;4946253;28;20027;-87
2022/11/15 00:43:24;;;;;;;21.42;9.95;;;;;;;;;;4946527;28;20042;-88
2022/11/15 00:45:50;;;;;;;20.42;9.15;;;;;;;;;;4949346;29;20035;-88
2022/11/15 00:48:15;;;;;;;18.23;9.48;;;;;;;;;;4931041;28;20039;-89
2022/11/15 00:50:40;;;;;;;18.95;9.05;;;;;;;;;;4929733;29;20038;-86
2022/11/15 00:53:06;;;;;;;17.80;8.75;;;;;;;;;;4934880;29;20076;-86
2022/11/15 00:55:31;;;;;;;16.23;9.40;;;;;;;;;;4935693;29;20031;-86
2022/11/15 00:57:57;;;;;;;17.00;9.32;;;;;;;;;;4953802;28;20038;-85
2022/11/15 01:00:23;;;;;;;16.10;8.80;;;;;;;;;;4933588;29;21060;-88
2022/11/15 01:02:48;;;;;;;15.38;8.73;;;;;;;;;;4932404;29;20023;-88
2022/11/15 01:05:14;;;;;;;16.08;9.30;;;;;;;;;;4939849;28;20074;-85
2022/11/15 01:07:39;;;;;;;18.25;9.27;;;;;;;;;;4932964;29;20090;-87
2022/11/15 01:10:05;;;;;;;14.57;8.77;;;;;;;;;;4953548;28;20030;-87
2022/11/15 01:12:31;;;;;;;13.43;7.82;;;;;;;;;;4948703;28;20067;-85
2022/11/15 01:14:57;;;;;;;15.15;8.75;;;;;;;;;;4934693;29;20479;-86
2022/11/15 01:17:22;;;;;;;15.32;9.23;;;;;;;;;;4931548;29;20026;-87
2022/11/15 01:19:48;;;;;;;17.77;9.27;;;;;;;;;;4938150;29;20559;-86
2022/11/15 01:22:13;;;;;;;14.00;9.02;;;;;;;;;;4935897;28;20023;-86
2022/11/15 01:24:39;;;;;;;15.65;8.60;;;;;;;;;;4942965;28;20491;-87
2022/11/15 01:27:04;;;;;;;16.15;8.32;;;;;;;;;;4946035;28;20034;-86
2022/11/15 01:29:29;;;;;;;13.93;8.50;;;;;;;;;;4938108;29;20106;-86
2022/11/15 01:31:55;;;;;;;13.20;8.00;;;;;;;;;;4948401;28;20034;-85
2022/11/15 01:34:20;;;;;;;13.95;7.93;;;;;;;;;;4946392;28;20058;-86
2022/11/15 01:36:46;;;;;;;18.27;9.20;;;;;;;;;;4943488;28;20490;-85
2022/11/15 01:39:11;;;;;;;15.18;8.35;;;;;;;;;;4944651;28;20023;-86
2022/11/15 01:41:36;;;;;;;15.32;8.90;;;;;;;;;;4942393;28;20054;-86
2022/11/15 01:44:30;;;;;;;14.50;8.40;;;;;;;;;;4934845;28;20498;-86
2022/11/15 01:46:56;;;;;;;14.90;8.45;;;;;;;;;;4927380;28;20035;-88
2022/11/15 01:49:24;;;;;;;15.13;8.75;;;;;;;;;;4937213;28;20031;-87
2022/11/15 01:51:50;;;;;;;15.05;8.73;;;;;;;;;;4948248;28;20050;-86
2022/11/15 01:54:19;;;;;;;13.60;8.43;;;;;;;;;;4952207;28;20022;-87
2022/11/15 01:57:07;;;;;;;16.23;9.45;;;;;;;;;;4953552;28;20404;-87
2022/11/15 01:59:33;;;;;;;13.82;8.68;;;;;;;;;;4947635;28;20035;-86
2022/11/15 02:01:59;;;;;;;14.15;8.55;;;;;;;;;;4934591;29;20037;-86
2022/11/15 02:04:31;;;;;;;16.73;9.32;;;;;;;;;;4930671;29;20059;-86
2022/11/15 02:06:56;;;;;;;15.40;8.88;;;;;;;;;;4932791;29;20039;-86
2022/11/15 02:09:22;;;;;;;17.55;9.32;;;;;;;;;;4943622;28;20031;-86
2022/11/15 02:11:49;;;;;;;15.18;9.38;;;;;;;;;;4946102;28;20038;-86
2022/11/15 02:14:18;;;;;;;16.85;9.43;;;;;;;;;;4945513;28;20035;-85
2022/11/15 02:17:18;;;;;;;14.93;8.80;;;;;;;;;;4945898;28;20518;-85
2022/11/15 02:20:29;;;;;;;14.05;8.60;;;;;;;;;;4930772;28;20392;-86
2022/11/15 02:23:00;;;;;;;15.30;9.75;;;;;;;;;;4911755;28;20035;-86
2022/11/15 02:25:40;;;;;;;14.95;8.30;;;;;;;;;;4942441;28;20031;-86
2022/11/15 02:28:33;;;;;;;13.82;9.13;;;;;;;;;;4943388;28;20499;-87
2022/11/15 02:31:09;;;;;;;15.80;9.35;;;;;;;;;;4949250;28;20483;-86
2022/11/15 02:33:59;;;;;;;15.13;8.70;;;;;;;;;;4952186;28;20035;-85
2022/11/15 02:36:59;;;;;;;15.98;9.23;;;;;;;;;;4933260;28;20495;-86
2022/11/15 02:39:41;;;;;;;18.00;9.57;;;;;;;;;;4926249;28;20404;-86
2022/11/15 02:45:22;;;;;;;16.00;8.90;;;;;;;;;;4952074;28;20033;-86
2022/11/15 02:47:52;;;;;;;13.57;8.38;;;;;;;;;;4946155;28;20031;-86
2022/11/15 02:50:21;;;;;;;14.55;9.13;;;;;;;;;;4928670;29;20031;-85
2022/11/15 02:52:48;;;;;;;17.75;9.93;;;;;;;;;;4938218;28;20084;-87
2022/11/15 02:55:38;;;;;;;18.23;9.80;;;;;;;;;;4934266;28;20030;-86
2022/11/15 02:58:25;;;;;;;14.75;8.85;;;;;;;;;;4933268;28;20395;-86
2022/11/15 03:01:12;;;;;;;15.63;8.73;;;;;;;;;;4953528;28;20035;-86
2022/11/15 03:03:59;;;;;;;17.65;9.10;;;;;;;;;;4941929;28;20117;-87
2022/11/15 03:06:30;;;;;;;15.85;9.07;;;;;;;;;;4946329;28;20507;-86
2022/11/15 03:09:25;;;;;;;15.18;9.10;;;;;;;;;;4950714;28;20087;-87
2022/11/15 03:12:00;;;;;;;15.20;9.15;;;;;;;;;;4950966;29;20039;-87
2022/11/15 03:14:32;;;;;;;15.65;9.65;;;;;;;;;;4930271;28;20019;-87
2022/11/15 03:17:18;;;;;;;15.18;9.50;;;;;;;;;;4942857;28;20030;-86
2022/11/15 03:19:47;;;;;;;16.42;8.70;;;;;;;;;;4945222;28;20035;-87
2022/11/15 03:22:22;;;;;;;14.40;9.73;;;;;;;;;;4931371;29;20031;-86
2022/11/15 03:24:54;;;;;;;17.35;9.27;;;;;;;;;;4940465;28;20027;-85
2022/11/15 03:27:22;;;;;;;17.92;9.73;;;;;;;;;;4951149;28;20035;-86
2022/11/15 03:29:54;;;;;;;13.02;8.88;;;;;;;;;;4948841;28;20023;-84
2022/11/15 03:32:27;;;;;;;17.15;10.50;;;;;;;;;;4952506;28;20340;-87
2022/11/15 03:35:01;;;;;;;16.05;9.70;;;;;;;;;;4931854;28;20432;-88
2022/11/15 03:37:43;;;;;;;13.23;8.35;;;;;;;;;;4938302;29;20030;-88
2022/11/15 03:40:10;;;;;;;15.10;9.05;;;;;;;;;;4947466;28;20107;-86
2022/11/15 03:42:40;;;;;;;16.00;9.95;;;;;;;;;;4946292;28;20036;-87
2022/11/15 03:45:25;;;;;;;13.35;9.07;;;;;;;;;;4944673;28;20810;-87
2022/11/15 03:48:01;;;;;;;15.23;9.57;;;;;;;;;;4933764;28;20042;-87
2022/11/15 03:50:28;;;;;;;19.48;10.02;;;;;;;;;;4932304;29;20046;-86
2022/11/15 03:52:55;;;;;;;15.98;9.48;;;;;;;;;;4935970;28;20096;-87
2022/11/15 03:55:21;;;;;;;15.77;9.68;;;;;;;;;;4936464;29;20432;-86
2022/11/15 03:57:50;;;;;;;16.40;9.85;;;;;;;;;;4933623;29;20178;-86
2022/11/15 04:00:16;;;;;;;16.38;10.00;;;;;;;;;;4950421;28;20546;-85
2022/11/15 04:02:41;;;;;;;17.50;9.63;;;;;;;;;;4950184;28;20399;-85
2022/11/15 04:05:07;;;;;;;18.55;10.38;;;;;;;;;;4960610;28;20050;-86
2022/11/15 04:07:32;;;;;;;15.30;8.90;;;;;;;;;;4967338;28;20026;-86
2022/11/15 04:10:05;;;;;;;15.45;9.95;;;;;;;;;;4961643;28;20029;-88
2022/11/15 04:12:35;;;;;;;15.60;10.37;;;;;;;;;;4965088;28;20488;-86
2022/11/15 04:15:12;;;;;;;15.98;9.95;;;;;;;;;;4969798;28;20023;-87
2022/11/15 04:17:38;;;;;;;17.13;10.30;;;;;;;;;;4961856;28;20090;-87
2022/11/15 04:25:36;;;;;;;13.82;9.63;;;;;;;;;;4963854;28;20508;-85
2022/11/15 04:28:02;;;;;;;16.50;10.43;;;;;;;;;;4951389;28;20114;-86
2022/11/15 04:30:27;;;;;;;16.85;10.50;;;;;;;;;;4973376;28;20423;-87
2022/11/15 04:32:53;;;;;;;15.68;9.95;;;;;;;;;;4945831;28;20027;-87
2022/11/15 04:35:18;;;;;;;17.40;10.88;;;;;;;;;;4964937;28;20530;-87
2022/11/15 04:37:43;;;;;;;18.98;9.27;;;;;;;;;;4943256;28;20039;-85
2022/11/15 04:40:09;;;;;;;18.17;10.20;;;;;;;;;;4956109;28;20389;-87
2022/11/15 04:42:34;;;;;;;17.50;10.82;;;;;;;;;;4962041;28;20031;-86
2022/11/15 04:45:00;;;;;;;19.25;10.60;;;;;;;;;;4966909;28;20042;-88
2022/11/15 04:47:25;;;;;;;20.60;10.48;;;;;;;;;;4945305;28;20034;-86
2022/11/15 04:49:50;;;;;;;18.85;10.43;;;;;;;;;;4971533;28;20054;-88
2022/11/15 04:52:16;;;;;;;16.58;10.27;;;;;;;;;;4963138;28;20031;-88
2022/11/15 04:54:42;;;;;;;17.25;10.82;;;;;;;;;;4950544;28;20029;-85
2022/11/15 04:57:08;;;;;;;22.92;11.13;;;;;;;;;;4969904;28;20035;-87
2022/11/15 04:59:33;;;;;;;18.05;10.77;;;;;;;;;;4964726;28;20030;-86
2022/11/15 05:01:58;;;;;;;17.60;10.93;;;;;;;;;;4967314;28;20039;-87
2022/11/15 05:04:24;;;;;;;17.98;10.70;;;;;;;;;;4945200;28;20046;-87
2022/11/15 05:06:51;;;;;;;17.33;9.63;;;;;;;;;;4946883;28;20153;-86
2022/11/15 05:09:21;;;;;;;16.23;9.98;;;;;;;;;;4952665;28;20036;-87
2022/11/15 05:11:47;;;;;;;18.77;10.77;;;;;;;;;;4941970;28;20503;-86
2022/11/15 05:14:12;;;;;;;19.40;11.18;;;;;;;;;;4941652;28;20026;-86
2022/11/15 05:16:38;;;;;;;20.83;10.95;;;;;;;;;;4944080;28;20406;-87
2022/11/15 05:19:04;;;;;;;18.38;11.20;;;;;;;;;;4964720;28;20038;-88
2022/11/15 05:21:30;;;;;;;18.70;10.65;;;;;;;;;;4955583;28;20026;-86
2022/11/15 05:23:55;;;;;;;19.00;10.57;;;;;;;;;;4952855;28;20061;-85
2022/11/15 05:26:20;;;;;;;21.08;12.25;;;;;;;;;;4964681;28;20035;-86
2022/11/15 05:28:46;;;;;;;20.83;11.68;;;;;;;;;;4946233;28;20399;-85
2022/11/15 05:31:16;;;;;;;19.05;11.15;;;;;;;;;;4967278;28;20105;-86
2022/11/15 05:33:43;;;;;;;18.45;10.57;;;;;;;;;;4951448;28;20038;-86
2022/11/15 05:36:31;;;;;;;18.10;10.65;;;;;;;;;;4952740;28;20030;-87
2022/11/15 05:38:57;;;;;;;19.42;10.80;;;;;;;;;;4945392;28;20034;-86
2022/11/15 05:41:31;;;;;;;15.88;9.13;;;;;;;;;;4942108;28;20501;-85
2022/11/15 05:43:57;;;;;;;21.73;11.48;;;;;;;;;;4964857;28;20090;-86
2022/11/15 05:46:22;;;;;;;17.63;10.57;;;;;;;;;;4967215;28;20487;-87
2022/11/15 05:48:50;;;;;;;15.75;10.43;;;;;;;;;;4967407;28;20145;-87
2022/11/15 05:51:17;;;;;;;19.25;11.15;;;;;;;;;;4953842;28;20471;-86
2022/11/15 05:53:43;;;;;;;18.88;11.00;;;;;;;;;;4957717;28;20039;-88
2022/11/15 05:56:09;;;;;;;19.48;10.35;;;;;;;;;;4967712;28;20458;-87
2022/11/15 05:58:35;;;;;;;18.95;10.95;;;;;;;;;;4952866;28;20019;-87
2022/11/15 06:01:01;;;;;;;22.52;10.25;;;;;;;;;;4942282;28;20483;-87
2022/11/15 06:03:26;;;;;;;21.95;11.35;;;;;;;;;;4949056;28;20045;-87
2022/11/15 06:05:51;;;;;;;17.17;10.48;;;;;;;;;;4945309;28;20212;-88
2022/11/15 06:08:17;;;;;;;19.35;10.70;;;;;;;;;;4964088;28;20034;-87
2022/11/15 06:10:42;;;;;;;17.60;10.80;;;;;;;;;;4940137;28;20089;-85
2022/11/15 06:13:07;;;;;;;17.80;10.57;;;;;;;;;;4948033;28;20023;-87
2022/11/15 06:15:36;;;;;;;17.77;10.32;;;;;;;;;;4968303;28;20030;-86
2022/11/15 06:18:02;;;;;;;17.90;10.38;;;;;;;;;;4955420;28;20039;-88
2022/11/15 06:20:28;;;;;;;17.13;10.75;;;;;;;;;;4944718;28;20073;-87
2022/11/15 06:23:38;;;;;;;17.83;10.10;;;;;;;;;;4973695;28;20459;-88
2022/11/15 06:26:04;;;;;;;16.17;10.13;;;;;;;;;;4938505;28;20387;-87
2022/11/15 06:28:31;;;;;;;17.77;10.35;;;;;;;;;;4963242;28;20037;-86
2022/11/15 06:31:09;;;;;;;17.45;10.13;;;;;;;;;;4964796;28;20031;-87
2022/11/15 06:34:10;;;;;;;21.23;11.05;;;;;;;;;;4961205;28;20085;-86
2022/11/15 06:36:36;;;;;;;16.73;10.27;;;;;;;;;;4870301;29;20032;-86
2022/11/15 06:39:03;;;;;;;15.55;9.77;;;;;;;;;;4923820;28;20039;-86
2022/11/15 06:41:28;;;;;;;18.95;10.48;;;;;;;;;;4955358;28;20037;-87
2022/11/15 06:43:54;;;;;;;17.00;10.75;;;;;;;;;;4952974;28;20121;-86
2022/11/15 06:46:19;;;;;;;17.00;10.10;;;;;;;;;;4953359;28;20030;-87
2022/11/15 06:48:44;;;;;;;17.48;10.18;;;;;;;;;;4948582;28;20135;-87
2022/11/15 06:51:10;;;;;;;17.63;10.45;;;;;;;;;;4947247;28;20039;-86
2022/11/15 06:53:36;;;;;;;16.58;10.48;;;;;;;;;;4965609;28;20093;-86
2022/11/15 06:56:03;;;;;;;17.88;10.57;;;;;;;;;;4963592;28;20038;-87
2022/11/15 06:58:29;;;;;;;17.92;10.30;;;;;;;;;;4956838;28;20030;-87
2022/11/15 07:01:00;;;;;;;18.75;10.80;;;;;;;;;;4946005;28;20110;-87
2022/11/15 07:03:26;;;;;;;15.07;9.57;;;;;;;;;;4949800;28;20106;-87
2022/11/15 07:05:54;;;;;;;19.58;11.32;;;;;;;;;;4951277;28;20051;-87
2022/11/15 07:08:26;;;;;;;16.58;10.32;;;;;;;;;;4963519;28;20073;-86
2022/11/15 07:10:51;;;;;;;17.77;10.23;;;;;;;;;;4958873;28;20038;-88
2022/11/15 07:13:17;;;;;;;17.10;9.88;;;;;;;;;;4958004;28;20093;-86
2022/11/15 07:16:15;;;;;;;18.98;11.30;;;;;;;;;;4957183;28;20542;-85
2022/11/15 07:18:46;;;;;;;18.20;10.57;;;;;;;;;;4970028;28;20476;-87
2022/11/15 07:21:12;;;;;;;16.95;10.05;;;;;;;;;;4953006;28;20487;-87
2022/11/15 07:23:38;;;;;;;16.33;9.75;;;;;;;;;;4957134;28;20108;-86
2022/11/15 07:26:04;;;;;;;19.88;10.45;;;;;;;;;;4968994;28;20081;-85
2022/11/15 07:28:32;;;;;;;16.95;9.77;;;;;;;;;;4941431;28;20438;-86
2022/11/15 07:31:02;;;;;;;19.90;10.65;;;;;;;;;;4966068;28;20483;-91
2022/11/15 07:33:27;;;;;;;16.35;9.48;;;;;;;;;;4956409;28;20403;-88
2022/11/15 07:35:53;;;;;;;16.33;9.23;;;;;;;;;;4955423;28;20034;-88
2022/11/15 07:38:19;;;;;;;17.95;10.38;;;;;;;;;;4955499;28;20057;-87
2022/11/15 07:41:08;;;;;;;15.27;9.48;;;;;;;;;;4948917;28;20503;-88
2022/11/15 07:43:47;;;;;;;13.90;8.73;;;;;;;;;;4938735;28;20034;-86
2022/11/15 07:46:12;;;;;;;16.77;9.27;;;;;;;;;;4966444;28;20046;-86
2022/11/15 07:48:39;;;;;;;13.85;8.65;;;;;;;;;;4952649;28;20027;-88
2022/11/15 07:51:06;;;;;;;14.75;8.80;;;;;;;;;;4968522;28;20110;-86
2022/11/15 07:53:31;;;;;;;15.23;8.93;;;;;;;;;;4953342;28;20035;-88
2022/11/15 07:55:57;;;;;;;17.80;9.43;;;;;;;;;;4973362;28;20459;-87
2022/11/15 07:58:22;;;;;;;16.55;9.43;;;;;;;;;;4957444;28;20058;-86
2022/11/15 08:00:48;;;;;;;14.15;8.77;;;;;;;;;;4971399;28;20093;-87
2022/11/15 08:03:15;;;;;;;14.43;9.00;;;;;;;;;;4974193;28;20034;-87
2022/11/15 08:05:42;;;;;;;12.57;8.52;;;;;;;;;;4946411;28;20034;-88
2022/11/15 08:08:15;;;;;;;15.35;8.70;;;;;;;;;;4959226;28;20407;-85
2022/11/15 08:10:41;;;;;;;13.93;8.60;;;;;;;;;;4958774;28;20077;-86
2022/11/15 08:13:09;;;;;;;14.60;9.27;;;;;;;;;;4955924;28;20452;-87
2022/11/15 08:18:55;;;;;;;18.98;9.02;;;;;;;;;;4958079;28;20034;-85
2022/11/15 08:22:05;;;;;;;17.75;9.50;;;;;;;;;;4969054;28;20135;-88
2022/11/15 08:24:31;;;;;;;12.45;7.95;;;;;;;;;;4961622;28;20035;-86
2022/11/15 08:26:56;;;;;;;14.43;8.63;;;;;;;;;;4953140;28;20113;-86
2022/11/15 08:29:22;;;;;;;15.05;9.27;;;;;;;;;;4970168;28;20041;-87
2022/11/15 08:31:47;;;;;;;16.67;8.65;;;;;;;;;;4939668;28;20038;-87
2022/11/15 08:34:12;;;;;;;14.48;7.88;;;;;;;;;;4970514;28;20023;-86
2022/11/15 08:36:38;;;;;;;17.40;8.60;;;;;;;;;;4947302;28;20773;-85
2022/11/15 08:39:04;;;;;;;11.82;7.85;;;;;;;;;;4942004;28;20086;-87
2022/11/15 08:41:33;;;;;;;15.27;8.55;;;;;;;;;;4966747;28;20058;-87
2022/11/15 08:43:58;;;;;;;14.20;8.35;;;;;;;;;;4948296;28;20574;-86
2022/11/15 08:46:24;;;;;;;13.75;8.68;;;;;;;;;;4974080;28;20102;-86
2022/11/15 08:48:49;;;;;;;15.63;8.52;;;;;;;;;;4954542;28;20122;-88
2022/11/15 08:51:15;;;;;;;17.88;8.40;;;;;;;;;;4962111;28;20066;-86
2022/11/15 08:53:41;;;;;;;15.15;8.80;;;;;;;;;;4972098;28;20145;-87
2022/11/15 08:56:09;;;;;;;15.23;7.70;;;;;;;;;;4953185;28;20034;-86
2022/11/15 08:58:35;;;;;;;14.75;8.10;;;;;;;;;;4981998;28;20039;-87
2022/11/15 09:01:01;;;;;;;18.88;8.02;;;;;;;;;;4969370;28;20030;-86
2022/11/15 09:03:26;;;;;;;12.73;7.07;;;;;;;;;;4972794;28;20027;-86
2022/11/15 09:05:56;;;;;;;12.38;7.20;;;;;;;;;;4963670;28;20035;-88
2022/11/15 09:08:22;;;;;;;13.23;7.10;;;;;;;;;;4966928;28;20117;-86
2022/11/15 09:10:48;;;;;;;12.00;7.22;;;;;;;;;;4956109;28;20553;-86
2022/11/15 09:13:13;;;;;;;11.18;6.15;;;;;;;;;;4972229;28;20403;-87
2022/11/15 09:15:39;;;;;;;10.50;6.00;;;;;;;;;;4971324;28;20490;-87
2022/11/15 09:18:04;;;;;;;9.27;6.03;;;;;;;;;;4973063;28;20164;-86
2022/11/15 09:20:30;;;;;;;10.10;5.90;;;;;;;;;;4954902;28;20023;-86
2022/11/15 09:22:59;;;;;;;9.45;5.80;;;;;;;;;;4973916;28;20077;-86
2022/11/15 09:25:25;;;;;;;8.90;6.22;;;;;;;;;;4968005;28;20034;-86
2022/11/15 09:27:50;;;;;;;11.25;6.60;;;;;;;;;;4981725;28;20399;-86
2022/11/15 09:30:16;;;;;;;11.27;7.07;;;;;;;;;;4953877;28;20069;-86
2022/11/15 09:32:41;;;;;;;10.02;6.03;;;;;;;;;;4970839;28;20030;-86
2022/11/15 09:35:07;;;;;;;9.43;5.88;;;;;;;;;;4961931;28;20030;-86
2022/11/15 09:37:32;;;;;;;8.48;5.40;;;;;;;;;;4971919;28;20057;-86
2022/11/15 09:39:58;;;;;;;9.02;5.38;;;;;;;;;;4968746;28;20030;-86
2022/11/15 09:42:42;;;;;;;8.00;5.05;;;;;;;;;;4964191;28;22331;-85
2022/11/15 09:45:20;;;;;;;7.05;4.38;;;;;;;;;;4970402;28;20403;-86
2022/11/15 09:48:00;;;;;;;8.18;4.57;;;;;;;;;;4963005;28;20026;-87
2022/11/15 09:50:49;;;;;;;7.53;4.50;;;;;;;;;;4958243;28;20031;-87
2022/11/15 09:53:19;;;;;;;8.10;4.18;;;;;;;;;;4977712;28;20026;-86
2022/11/15 09:56:02;;;;;;;10.20;4.40;;;;;;;;;;4975750;28;20023;-87
2022/11/15 09:58:44;;;;;;;6.15;3.92;;;;;;;;;;4971021;28;20034;-86
2022/11/15 10:01:22;;;;;;;7.40;4.18;;;;;;;;;;4954471;28;20372;-85
2022/11/15 10:03:48;;;;;;;6.32;3.85;;;;;;;;;;4967020;28;20462;-86
2022/11/15 10:06:23;;;;;;;5.95;3.47;;;;;;;;;;4955861;28;20077;-87
2022/11/15 10:08:57;;;;;;;6.07;3.30;;;;;;;;;;4951610;28;20035;-86
2022/11/15 10:11:26;;;;;;;6.60;3.10;;;;;;;;;;4970026;28;20391;-87
2022/11/15 10:13:56;;;;;;;4.95;3.13;;;;;;;;;;4954965;28;20034;-86
2022/11/15 10:16:39;;;;;;;7.40;3.78;;;;;;;;;;4949278;28;20070;-86
2022/11/15 10:19:26;;;;;;;5.43;3.42;;;;;;;;;;4968593;28;20023;-85
2022/11/15 10:22:25;;;;;;;4.50;2.90;;;;;;;;;;4970403;28;20033;-85
2022/11/15 10:24:59;;;;;;;7.07;3.30;;;;;;;;;;4936383;28;20055;-85
2022/11/15 10:27:25;;;;;;;6.18;3.35;;;;;;;;;;4946467;28;20507;-85
2022/11/15 10:29:50;;;;;;;6.78;3.40;;;;;;;;;;4976920;28;20050;-85
2022/11/15 10:35:42;;;;;;;5.72;3.13;;;;;;;;;;4933066;28;20507;-85
2022/11/15 10:38:12;;;;;;;5.22;2.97;;;;;;;;;;4961294;28;20109;-85
2022/11/15 10:40:39;;;;;;;5.15;2.30;;;;;;;;;;4948352;28;20039;-85
2022/11/15 10:43:11;;;;;;;4.70;2.90;;;;;;;;;;4962084;28;20031;-86
2022/11/15 10:45:38;;;;;;;5.28;2.30;;;;;;;;;;4976708;28;20109;-85
2022/11/15 10:48:12;;;;;;;4.72;2.30;;;;;;;;;;4966798;28;20030;-85
2022/11/15 10:50:40;;;;;;;5.50;2.20;;;;;;;;;;4973780;28;20080;-85
2022/11/15 10:53:38;;;;;;;4.60;2.42;;;;;;;;;;4973608;28;20509;-85
2022/11/15 10:56:08;;;;;;;3.50;1.80;;;;;;;;;;4970598;28;20049;-85
2022/11/15 10:58:50;;;;;;;5.72;2.03;;;;;;;;;;4972111;28;20039;-84
2022/11/15 11:01:18;;;;;;;4.03;1.70;;;;;;;;;;4953504;28;20034;-85
2022/11/15 11:03:58;;;;;;;3.30;1.60;;;;;;;;;;4953834;28;20483;-85
2022/11/15 11:06:24;;;;;;;2.88;1.30;;;;;;;;;;4972734;28;20043;-85
2022/11/15 11:12:49;;;;;;;3.08;1.17;;;;;;;;;;4967099;28;20106;-84
2022/11/15 11:15:25;;;;;;;3.83;1.15;;;;;;;;;;4971881;28;20038;-85
2022/11/15 11:18:15;;;;;;;2.03;1.10;;;;;;;;;;4946301;28;20543;-85
2022/11/15 11:20:51;;;;;;;2.35;0.98;;;;;;;;;;4963825;28;20062;-85
2022/11/15 11:23:30;;;;;;;2.20;0.80;;;;;;;;;;4975714;28;20137;-84
2022/11/15 11:26:20;;;;;;;2.28;0.90;;;;;;;;;;4970269;28;20026;-85
2022/11/15 11:28:54;;;;;;;3.72;1.38;;;;;;;;;;4974039;28;20063;-84
2022/11/15 11:31:47;;;;;;;1.90;0.90;;;;;;;;;;4976424;28;20030;-85
2022/11/15 11:34:37;;;;;;;4.72;1.55;;;;;;;;;;4966636;28;20502;-85
2022/11/15 11:37:40;;;;;;;2.05;0.77;;;;;;;;;;4975556;28;20038;-84
2022/11/15 11:40:09;;;;;;;3.15;0.88;;;;;;;;;;4967417;28;20051;-86
2022/11/15 11:42:40;;;;;;;2.58;0.80;;;;;;;;;;4977445;28;20423;-85
2022/11/15 11:45:20;;;;;;;4.57;1.10;;;;;;;;;;4979130;28;20037;-85
2022/11/15 11:48:03;;;;;;;3.80;0.95;;;;;;;;;;4974223;28;20053;-85
2022/11/15 11:50:29;;;;;;;2.92;1.15;;;;;;;;;;4967503;28;20566;-85
2022/11/15 11:53:08;;;;;;;3.00;1.15;;;;;;;;;;4955302;28;20080;-86
2022/11/15 11:55:38;;;;;;;3.88;1.23;;;;;;;;;;4977331;28;20085;-85
2022/11/15 11:58:16;;;;;;;2.28;1.00;;;;;;;;;;4957221;28;20023;-85
2022/11/15 12:00:53;;;;;;;2.97;1.30;;;;;;;;;;4966707;28;20031;-84
2022/11/15 12:03:30;;;;;;;5.15;1.20;;;;;;;;;;4954198;28;20392;-85
2022/11/15 12:06:27;;;;;;;2.90;1.20;;;;;;;;;;4957648;28;20051;-86
2022/11/15 12:09:14;;;;;;;4.97;1.50;;;;;;;;;;4956662;28;20159;-86
2022/11/15 12:11:51;;;;;;;5.35;1.30;;;;;;;;;;4968036;28;20104;-85
2022/11/15 12:14:43;;;;;;;4.20;1.17;;;;;;;;;;4969720;28;20026;-86
2022/11/15 12:17:11;;;;;;;4.90;1.25;;;;;;;;;;4947850;28;20046;-85
2022/11/15 12:19:37;;;;;;;3.78;1.13;;;;;;;;;;4966587;28;20027;-85
2022/11/15 12:22:10;;;;;;;3.35;1.23;;;;;;;;;;4981258;28;20035;-85
2022/11/15 12:24:53;;;;;;;4.63;1.30;;;;;;;;;;4952201;28;20034;-88
2022/11/15 12:27:40;;;;;;;3.38;1.27;;;;;;;;;;4975675;28;20038;-87
2022/11/15 12:30:18;;;;;;;3.08;1.33;;;;;;;;;;4965405;28;20038;-86
2022/11/15 12:32:56;;;;;;;3.60;1.27;;;;;;;;;;4953642;28;20038;-86
2022/11/15 12:35:41;;;;;;;3.10;1.13;;;;;;;;;;4974379;28;20035;-86
2022/11/15 12:38:11;;;;;;;2.45;1.13;;;;;;;;;;4978641;28;20093;-86
2022/11/15 12:40:39;;;;;;;4.45;1.30;;;;;;;;;;4957853;28;20034;-86
2022/11/15 12:43:13;;;;;;;3.35;1.38;;;;;;;;;;4956783;28;20441;-86
2022/11/15 12:45:44;;;;;;;3.50;1.40;;;;;;;;;;4960345;28;20483;-85
2022/11/15 12:48:16;;;;;;;5.22;1.48;;;;;;;;;;4941415;29;20031;-87
2022/11/15 12:50:51;;;;;;;4.28;1.35;;;;;;;;;;4969129;28;20033;-86
2022/11/15 12:53:23;;;;;;;2.80;1.13;;;;;;;;;;4967013;28;20034;-86
2022/11/15 12:56:16;;;;;;;4.38;1.30;;;;;;;;;;4964823;28;20498;-86
2022/11/15 12:58:55;;;;;;;2.92;1.20;;;;;;;;;;4971963;28;20097;-87
2022/11/15 13:01:35;;;;;;;2.80;1.10;;;;;;;;;;4975236;28;20034;-86
2022/11/15 13:04:19;;;;;;;2.55;1.13;;;;;;;;;;4967218;28;20039;-86
2022/11/15 13:06:48;;;;;;;2.90;1.13;;;;;;;;;;4965040;28;20042;-87
2022/11/15 13:09:35;;;;;;;4.43;1.38;;;;;;;;;;4976795;28;20535;-86
2022/11/15 13:12:09;;;;;;;3.35;1.08;;;;;;;;;;4977905;28;20499;-86
2022/11/15 13:14:49;;;;;;;4.57;1.08;;;;;;;;;;4949989;28;20085;-85
2022/11/15 13:17:29;;;;;;;3.05;0.90;;;;;;;;;;4957589;28;20114;-85
2022/11/15 13:20:15;;;;;;;3.17;1.10;;;;;;;;;;4961771;28;20035;-87
2022/11/15 13:22:51;;;;;;;3.53;1.00;;;;;;;;;;4966707;28;20479;-88
2022/11/15 13:25:19;;;;;;;3.05;1.10;;;;;;;;;;4971475;28;20033;-86
2022/11/15 13:27:48;;;;;;;2.97;1.20;;;;;;;;;;4955486;28;20050;-87
2022/11/15 13:30:19;;;;;;;4.18;1.15;;;;;;;;;;4980773;28;20037;-85
2022/11/15 13:32:45;;;;;;;3.38;1.15;;;;;;;;;;4954866;28;20491;-86
2022/11/15 13:35:20;;;;;;;4.30;1.23;;;;;;;;;;4955865;28;20058;-87
2022/11/15 13:37:45;;;;;;;3.03;1.10;;;;;;;;;;4973019;28;20798;-86
2022/11/15 13:40:30;;;;;;;3.63;1.20;;;;;;;;;;4955956;28;20030;-87
2022/11/15 13:42:57;;;;;;;3.30;0.93;;;;;;;;;;4968862;28;20031;-88
2022/11/15 13:45:23;;;;;;;3.63;1.20;;;;;;;;;;4974213;28;20023;-87
2022/11/15 13:47:57;;;;;;;3.97;1.40;;;;;;;;;;4952918;28;20174;-85
2022/11/15 13:50:31;;;;;;;4.78;1.15;;;;;;;;;;4967732;28;20554;-86
2022/11/15 13:53:05;;;;;;;3.90;1.02;;;;;;;;;;4958885;28;20089;-86
2022/11/15 13:56:01;;;;;;;2.42;1.15;;;;;;;;;;4954740;28;20019;-85
2022/11/15 13:58:27;;;;;;;4.80;1.10;;;;;;;;;;4944006;28;20039;-85
2022/11/15 14:01:06;;;;;;;2.58;1.00;;;;;;;;;;4951138;28;20088;-88
2022/11/15 14:03:38;;;;;;;3.85;1.10;;;;;;;;;;4953942;28;20027;-86
2022/11/15 14:06:15;;;;;;;1.52;0.73;;;;;;;;;;4951727;28;20046;-86
2022/11/15 14:09:01;;;;;;;2.05;0.85;;;;;;;;;;4973409;28;20031;-85
2022/11/15 14:11:28;;;;;;;2.25;0.70;;;;;;;;;;4944162;28;20074;-86
2022/11/15 14:14:08;;;;;;;2.70;1.00;;;;;;;;;;4938102;28;20033;-86
2022/11/15 14:16:36;;;;;;;2.50;0.90;;;;;;;;;;4948891;28;20042;-85
2022/11/15 14:19:04;;;;;;;3.92;0.80;;;;;;;;;;4967303;28;20027;-87
2022/11/15 14:21:30;;;;;;;5.05;1.30;;;;;;;;;;4956619;28;20027;-86
2022/11/15 14:24:15;;;;;;;5.00;1.10;;;;;;;;;;4956050;28;20051;-87
2022/11/15 14:26:42;;;;;;;3.08;1.02;;;;;;;;;;4962818;28;20034;-86
2022/11/15 14:29:28;;;;;;;4.55;1.10;;;;;;;;;;4954960;28;20391;-86
2022/11/15 14:32:54;;;;;;;2.90;1.00;;;;;;;;;;4967997;28;20070;-88
2022/11/15 14:35:32;;;;;;;3.30;0.95;;;;;;;;;;4938647;28;20073;-88
2022/11/15 14:37:59;;;;;;;3.97;1.20;;;;;;;;;;4990741;28;20046;-87
2022/11/15 14:40:24;;;;;;;3.42;1.02;;;;;;;;;;4976277;28;20046;-87
2022/11/15 14:42:50;;;;;;;3.15;1.10;;;;;;;;;;4978292;28;20498;-87
2022/11/15 14:46:21;;;;;;;3.20;1.05;;;;;;;;;;4979830;28;20053;-86
2022/11/15 14:48:46;;;;;;;3.58;0.80;;;;;;;;;;4956675;28;20068;-86
2022/11/15 14:51:18;;;;;;;6.97;1.08;;;;;;;;;;4987561;28;20546;-86
2022/11/15 14:53:47;;;;;;;4.43;0.90;;;;;;;;;;4989205;28;20046;-85
2022/11/15 14:56:13;;;;;;;4.47;1.08;;;;;;;;;;4980097;28;20022;-87
2022/11/15 14:58:39;;;;;;;2.28;1.00;;;;;;;;;;4970953;28;20043;-86
2022/11/15 15:01:19;;;;;;;1.48;0.70;;;;;;;;;;4984100;28;20137;-87
2022/11/15 15:03:44;;;;;;;3.63;1.20;;;;;;;;;;4971723;28;20042;-85
2022/11/15 15:06:12;;;;;;;2.00;0.70;;;;;;;;;;4963327;28;20426;-87
2022/11/15 15:08:40;;;;;;;2.05;0.80;;;;;;;;;;4962591;28;20051;-87
2022/11/15 15:14:30;;;;;;;5.15;1.35;;;;;;;;;;4973766;28;20554;-87
2022/11/15 15:17:10;;;;;;;3.08;1.02;;;;;;;;;;4978738;28;20035;-86
2022/11/15 15:19:36;;;;;;;4.32;1.23;;;;;;;;;;4953250;28;20035;-87
2022/11/15 15:22:02;;;;;;;3.88;1.27;;;;;;;;;;4971978;28;20041;-86